createdAt,value
2022-12-24T00:02:09.086Z,0.95
2022-12-24T00:05:00.594Z,2.13
2022-12-24T00:07:46.169Z,0.90
2022-12-24T00:10:31.224Z,1.37
2022-12-24T00:13:16.416Z,1.30
2022-12-24T00:16:01.727Z,1.77
2022-12-24T00:18:47.275Z,1.50
2022-12-24T00:21:32.682Z,2.85
2022-12-24T00:24:17.792Z,1.30
2022-12-24T00:27:03.566Z,0.90
2022-12-24T00:29:48.383Z,1.27
2022-12-24T00:32:33.479Z,1.58
2022-12-24T00:35:18.536Z,1.02
2022-12-24T00:38:04.372Z,1.60
2022-12-24T00:40:49.637Z,1.67
2022-12-24T00:43:34.801Z,1.40
2022-12-24T00:46:19.986Z,0.70
2022-12-24T00:49:06.417Z,1.40
2022-12-24T00:51:51.357Z,0.30
2022-12-24T00:54:36.594Z,0.93
2022-12-24T00:57:21.302Z,1.13
2022-12-24T01:00:07.025Z,1.02
2022-12-24T01:02:52.296Z,1.45
2022-12-24T01:05:37.362Z,1.27
2022-12-24T01:08:22.313Z,1.73
2022-12-24T01:11:09.454Z,1.35
2022-12-24T01:13:55.857Z,1.50
2022-12-24T01:16:40.869Z,1.27
2022-12-24T01:19:26.104Z,0.93
2022-12-24T01:22:11.273Z,1.38
2022-12-24T01:24:56.161Z,0.88
2022-12-24T01:27:41.037Z,0.88
2022-12-24T01:30:26.182Z,1.25
2022-12-24T01:33:11.087Z,1.40
2022-12-24T01:35:55.985Z,1.20
2022-12-24T01:38:41.432Z,1.40
2022-12-24T01:41:45.351Z,1.05
2022-12-24T01:44:37.272Z,0.85
2022-12-24T01:47:27.435Z,1.10
2022-12-24T01:50:17.650Z,0.95
2022-12-24T01:53:05.677Z,1.35
2022-12-24T01:55:51.687Z,1.50
2022-12-24T01:58:37.742Z,1.25
2022-12-24T02:01:23.239Z,1.10
2022-12-24T02:04:26.051Z,0.52
2022-12-24T02:07:10.867Z,1.40
2022-12-24T02:10:01.341Z,0.70
2022-12-24T02:12:47.191Z,1.05
2022-12-24T02:16:05.206Z,1.37
2022-12-24T02:19:10.147Z,1.20
2022-12-24T02:21:59.265Z,1.15
2022-12-24T02:25:09.314Z,1.30
2022-12-24T02:27:59.565Z,1.55
2022-12-24T02:31:10.382Z,1.50
2022-12-24T02:34:04.844Z,1.35
2022-12-24T02:37:27.917Z,1.08
2022-12-24T02:40:27.983Z,1.23
2022-12-24T02:43:19.043Z,2.05
2022-12-24T02:46:11.088Z,1.00
2022-12-24T02:48:56.537Z,1.45
2022-12-24T02:51:41.753Z,1.40
2022-12-24T02:54:27.087Z,1.55
2022-12-24T02:57:28.319Z,1.80
2022-12-24T03:00:17.919Z,1.77
2022-12-24T03:03:28.308Z,1.05
2022-12-24T03:06:21.727Z,1.52
2022-12-24T03:09:19.570Z,1.10
2022-12-24T03:12:10.657Z,1.20
2022-12-24T03:14:55.841Z,0.60
2022-12-24T03:17:43.655Z,1.00
2022-12-24T03:20:35.312Z,0.60
2022-12-24T03:23:20.589Z,0.70
2022-12-24T03:26:08.970Z,0.98
2022-12-24T03:28:54.088Z,0.90
2022-12-24T03:31:41.809Z,0.85
2022-12-24T03:34:27.383Z,0.90
2022-12-24T03:37:12.227Z,0.80
2022-12-24T03:39:57.235Z,0.82
2022-12-24T03:42:42.435Z,0.60
2022-12-24T03:45:27.631Z,0.60
2022-12-24T03:48:12.764Z,0.50
2022-12-24T03:50:57.643Z,0.50
2022-12-24T03:53:42.777Z,0.98
2022-12-24T03:56:28.223Z,0.67
2022-12-24T03:59:13.144Z,1.02
2022-12-24T04:01:58.639Z,0.40
2022-12-24T04:04:43.870Z,1.13
2022-12-24T04:07:29.067Z,0.50
2022-12-24T04:10:16.595Z,0.60
2022-12-24T04:13:01.527Z,0.50
2022-12-24T04:15:55.940Z,0.80
2022-12-24T04:18:41.224Z,0.60
2022-12-24T04:21:26.457Z,0.52
2022-12-24T04:24:12.325Z,0.40
2022-12-24T04:26:57.152Z,0.70
2022-12-24T04:29:42.354Z,0.95
2022-12-24T04:32:27.206Z,0.43
2022-12-24T04:35:12.405Z,0.52
2022-12-24T04:37:57.538Z,0.40
2022-12-24T04:40:43.897Z,0.50
2022-12-24T04:43:29.682Z,0.30
2022-12-24T04:46:20.745Z,0.40
2022-12-24T04:49:05.628Z,0.40
2022-12-24T04:51:50.596Z,0.40
2022-12-24T04:54:35.667Z,0.30
2022-12-24T04:57:21.008Z,0.40
2022-12-24T05:00:07.218Z,0.30
2022-12-24T05:02:52.724Z,0.45
2022-12-24T05:05:37.864Z,0.30
2022-12-24T05:08:22.837Z,0.40
2022-12-24T05:11:08.004Z,0.50
2022-12-24T05:13:52.906Z,0.38
2022-12-24T05:16:38.562Z,0.30
2022-12-24T05:19:23.383Z,0.57
2022-12-24T05:22:27.215Z,0.38
2022-12-24T05:25:30.886Z,0.50
2022-12-24T05:28:16.247Z,0.82
2022-12-24T05:31:01.412Z,0.90
2022-12-24T05:33:46.637Z,0.77
2022-12-24T05:36:31.439Z,1.20
2022-12-24T05:39:17.941Z,1.13
2022-12-24T05:42:03.227Z,0.90
2022-12-24T05:44:48.334Z,1.10
2022-12-24T05:47:38.127Z,1.00
2022-12-24T05:50:26.661Z,1.00
2022-12-24T05:53:11.486Z,1.40
2022-12-24T05:56:05.793Z,1.65
2022-12-24T05:58:53.323Z,1.20
2022-12-24T06:01:38.531Z,1.07
2022-12-24T06:04:28.638Z,0.90
2022-12-24T06:07:14.369Z,0.98
2022-12-24T06:09:59.177Z,1.30
2022-12-24T06:12:44.147Z,1.10
2022-12-24T06:15:30.243Z,0.63
2022-12-24T06:18:15.370Z,1.35
2022-12-24T06:21:00.744Z,1.17
2022-12-24T06:23:46.715Z,1.17
2022-12-24T06:26:31.510Z,1.27
2022-12-24T06:29:16.727Z,1.17
2022-12-24T06:32:01.849Z,1.13
2022-12-24T06:34:46.742Z,1.42
2022-12-24T06:37:31.891Z,1.42
2022-12-24T06:40:17.095Z,1.83
2022-12-24T06:43:02.195Z,1.17
2022-12-24T06:45:53.378Z,1.67
2022-12-24T06:48:38.234Z,1.55
2022-12-24T06:51:23.295Z,1.00
2022-12-24T06:54:08.396Z,1.80
2022-12-24T06:56:53.203Z,1.50
2022-12-24T06:59:38.287Z,1.48
2022-12-24T07:02:24.114Z,1.90
2022-12-24T07:05:12.320Z,1.85
2022-12-24T07:07:57.212Z,1.67
2022-12-24T07:10:42.467Z,1.70
2022-12-24T07:13:27.476Z,1.92
2022-12-24T07:16:12.615Z,1.70
2022-12-24T07:18:57.830Z,1.35
2022-12-24T07:21:42.616Z,1.88
2022-12-24T07:24:27.777Z,1.63
2022-12-24T07:27:12.917Z,1.98
2022-12-24T07:29:58.108Z,1.90
2022-12-24T07:32:42.981Z,1.80
2022-12-24T07:35:28.097Z,1.83
2022-12-24T07:38:13.333Z,2.27
2022-12-24T07:40:58.571Z,1.52
2022-12-24T07:43:43.514Z,2.03
2022-12-24T07:46:28.767Z,1.73
2022-12-24T07:49:14.182Z,2.20
2022-12-24T07:51:59.405Z,1.53
2022-12-24T07:54:44.451Z,1.63
2022-12-24T07:57:29.635Z,0.85
2022-12-24T08:00:14.757Z,2.22
2022-12-24T08:03:00.104Z,1.60
2022-12-24T08:05:45.956Z,1.40
2022-12-24T08:08:31.109Z,1.67
2022-12-24T08:11:16.586Z,1.40
2022-12-24T08:14:01.637Z,1.85
2022-12-24T08:16:46.653Z,1.35
2022-12-24T08:19:31.551Z,1.60
2022-12-24T08:22:16.576Z,1.65
2022-12-24T08:25:01.422Z,2.13
2022-12-24T08:27:46.531Z,1.70
2022-12-24T08:30:31.387Z,1.35
2022-12-24T08:33:17.250Z,1.13
2022-12-24T08:36:03.245Z,1.83
2022-12-24T08:38:48.290Z,2.28
2022-12-24T08:41:33.376Z,1.23
2022-12-24T08:44:18.581Z,1.80
2022-12-24T08:47:03.735Z,1.63
2022-12-24T08:49:48.515Z,1.73
2022-12-24T08:52:33.912Z,1.70
2022-12-24T08:55:18.857Z,1.65
2022-12-24T08:58:03.943Z,1.80
2022-12-24T09:00:48.896Z,1.90
2022-12-24T09:03:33.895Z,2.17
2022-12-24T09:06:19.146Z,2.10
2022-12-24T09:09:05.175Z,1.65
2022-12-24T09:11:50.589Z,1.80
2022-12-24T09:14:35.884Z,1.83
2022-12-24T09:17:21.433Z,1.33
2022-12-24T09:20:07.182Z,1.70
2022-12-24T09:22:52.256Z,2.00
2022-12-24T09:25:42.084Z,2.25
2022-12-24T09:28:26.873Z,1.03
2022-12-24T09:31:13.177Z,1.33
2022-12-24T09:33:58.690Z,2.15
2022-12-24T09:36:43.634Z,1.83
2022-12-24T09:39:29.140Z,1.65
2022-12-24T09:42:20.374Z,1.93
2022-12-24T09:45:23.819Z,2.13
2022-12-24T09:48:16.006Z,1.42
2022-12-24T09:51:21.311Z,1.60
2022-12-24T09:54:30.663Z,1.75
2022-12-24T09:57:32.020Z,2.00
2022-12-24T10:00:27.561Z,2.10
2022-12-24T10:03:16.571Z,2.05
2022-12-24T10:06:16.049Z,1.77
2022-12-24T10:09:29.112Z,2.40
2022-12-24T10:12:22.723Z,1.60
2022-12-24T10:15:18.545Z,1.95
2022-12-24T10:18:26.368Z,1.40
2022-12-24T10:21:15.574Z,1.85
2022-12-24T10:24:06.859Z,1.60
2022-12-24T10:27:06.696Z,1.77
2022-12-24T10:30:01.500Z,1.63
2022-12-24T10:32:51.385Z,1.90
2022-12-24T10:35:44.993Z,1.80
2022-12-24T10:38:31.539Z,1.88
2022-12-24T10:41:17.181Z,1.53
2022-12-24T10:44:04.364Z,2.33
2022-12-24T10:46:49.527Z,1.42
2022-12-24T10:49:46.562Z,1.58
2022-12-24T10:52:37.608Z,2.30
2022-12-24T10:55:24.437Z,1.40
2022-12-24T10:58:16.938Z,1.80
2022-12-24T11:01:02.598Z,2.80
2022-12-24T11:04:00.956Z,2.50
2022-12-24T11:06:56.117Z,1.38
2022-12-24T11:09:43.136Z,2.00
2022-12-24T11:12:34.733Z,1.27
2022-12-24T11:15:23.674Z,2.10
2022-12-24T11:18:14.854Z,2.33
2022-12-24T11:21:00.969Z,0.80
2022-12-24T11:23:55.507Z,1.43
2022-12-24T11:26:43.094Z,2.58
2022-12-24T11:29:28.815Z,1.45
2022-12-24T11:32:21.018Z,2.13
2022-12-24T11:35:08.118Z,1.63
2022-12-24T11:38:11.726Z,1.83
2022-12-24T11:41:00.744Z,1.85
2022-12-24T11:43:51.848Z,2.58
2022-12-24T11:46:40.102Z,2.35
2022-12-24T11:49:31.823Z,1.80
2022-12-24T11:52:22.085Z,1.87
2022-12-24T11:55:18.853Z,1.55
2022-12-24T11:58:25.300Z,2.13
2022-12-24T12:01:24.630Z,2.13
2022-12-24T12:04:18.393Z,2.22
2022-12-24T12:07:14.703Z,2.67
2022-12-24T12:10:17.790Z,2.63
2022-12-24T12:13:12.936Z,2.22
2022-12-24T12:16:18.516Z,2.10
2022-12-24T12:19:13.092Z,2.20
2022-12-24T12:22:04.820Z,1.70
2022-12-24T12:24:53.588Z,1.75
2022-12-24T12:27:44.037Z,1.83
2022-12-24T12:30:30.519Z,2.13
2022-12-24T12:33:59.955Z,2.20
2022-12-24T12:36:49.203Z,2.27
2022-12-24T12:39:36.475Z,1.10
2022-12-24T12:42:34.700Z,1.67
2022-12-24T12:45:32.453Z,1.80
2022-12-24T12:48:41.968Z,1.75
2022-12-24T12:51:47.789Z,2.47
2022-12-24T12:54:51.414Z,1.70
2022-12-24T12:57:39.090Z,1.88
2022-12-24T13:00:24.449Z,2.00
2022-12-24T13:03:32.051Z,1.67
2022-12-24T13:07:00.315Z,1.80
2022-12-24T13:10:02.363Z,1.60
2022-12-24T13:13:20.756Z,2.00
2022-12-24T13:16:45.626Z,1.90
2022-12-24T13:20:01.442Z,2.08
2022-12-24T13:22:53.795Z,1.93
2022-12-24T13:25:44.160Z,1.50
2022-12-24T13:28:34.158Z,1.73
2022-12-24T13:31:24.424Z,1.65
2022-12-24T13:34:33.538Z,2.13
2022-12-24T13:37:30.936Z,1.47
2022-12-24T13:40:25.160Z,1.55
2022-12-24T13:43:12.267Z,1.80
2022-12-24T13:45:58.829Z,2.50
2022-12-24T13:48:43.545Z,1.90
2022-12-24T13:51:29.134Z,1.60
2022-12-24T13:54:15.001Z,1.50
2022-12-24T13:57:00.879Z,2.38
2022-12-24T13:59:46.590Z,1.70
2022-12-24T14:02:37.608Z,2.13
2022-12-24T14:05:39.229Z,2.90
2022-12-24T14:08:24.195Z,1.95
2022-12-24T14:11:17.801Z,2.28
2022-12-24T14:14:09.728Z,1.75
2022-12-24T14:16:59.055Z,1.90
2022-12-24T14:20:01.772Z,1.83
2022-12-24T14:22:47.313Z,1.98
2022-12-24T14:25:32.723Z,1.83
2022-12-24T14:28:24.153Z,2.42
2022-12-24T14:31:15.545Z,2.30
2022-12-24T14:34:13.515Z,2.03
2022-12-24T14:37:02.835Z,1.80
2022-12-24T14:39:49.078Z,1.90
2022-12-24T14:42:42.843Z,2.10
2022-12-24T14:45:37.470Z,2.05
2022-12-24T14:48:34.217Z,2.30
2022-12-24T14:51:27.906Z,2.15
2022-12-24T14:54:35.504Z,2.00
2022-12-24T14:57:23.609Z,3.00
2022-12-24T15:00:20.326Z,2.25
2022-12-24T15:03:14.390Z,2.57
2022-12-24T15:06:05.147Z,1.98
2022-12-24T15:08:50.467Z,2.10
2022-12-24T15:11:35.926Z,2.03
2022-12-24T15:14:23.824Z,3.17
2022-12-24T15:17:12.170Z,2.50
2022-12-24T15:19:59.133Z,3.05
2022-12-24T15:22:47.057Z,3.15
2022-12-24T15:25:32.988Z,3.15
2022-12-24T15:28:19.946Z,2.90
2022-12-24T15:31:11.241Z,3.17
2022-12-24T15:33:59.069Z,2.85
2022-12-24T15:36:43.868Z,2.78
2022-12-24T15:39:29.754Z,3.20
2022-12-24T15:42:19.922Z,2.38
2022-12-24T15:45:12.731Z,2.50
2022-12-24T15:48:01.137Z,2.30
2022-12-24T15:50:48.902Z,2.20
2022-12-24T15:53:43.609Z,2.72
2022-12-24T15:56:31.400Z,4.40
2022-12-24T15:59:19.159Z,5.80
2022-12-24T16:02:38.706Z,2.70
2022-12-24T16:05:33.583Z,2.80
2022-12-24T16:08:23.111Z,2.95
2022-12-24T16:11:28.367Z,3.20
2022-12-24T16:14:20.091Z,3.27
2022-12-24T16:17:17.675Z,4.47
2022-12-24T16:20:07.288Z,4.05
2022-12-24T16:22:52.392Z,4.72
2022-12-24T16:25:37.519Z,4.53
2022-12-24T16:28:23.297Z,5.17
2022-12-24T16:31:17.743Z,4.75
2022-12-24T16:34:03.355Z,5.78
2022-12-24T16:36:48.201Z,6.30
2022-12-24T16:39:34.810Z,9.40
2022-12-24T16:42:38.694Z,8.80
2022-12-24T16:45:23.764Z,9.68
2022-12-24T16:48:09.120Z,10.80
2022-12-24T16:50:54.058Z,11.05
2022-12-24T16:53:39.964Z,11.27
2022-12-24T16:56:24.932Z,12.33
2022-12-24T16:59:19.647Z,15.60
2022-12-24T17:02:10.872Z,15.27
2022-12-24T17:04:58.949Z,13.73
2022-12-24T17:07:44.652Z,15.65
2022-12-24T17:10:29.537Z,12.30
2022-12-24T17:13:14.371Z,12.25
2022-12-24T17:16:01.891Z,12.20
2022-12-24T17:18:48.112Z,10.80
2022-12-24T17:21:33.360Z,9.57
2022-12-24T17:24:18.492Z,8.70
2022-12-24T17:27:03.691Z,9.32
2022-12-24T17:29:48.498Z,8.02
2022-12-24T17:32:33.869Z,7.57
2022-12-24T17:35:19.044Z,8.65
2022-12-24T17:38:04.254Z,7.00
2022-12-24T17:40:49.653Z,7.70
2022-12-24T17:43:35.356Z,6.38
2022-12-24T17:46:22.997Z,6.45
2022-12-24T17:49:09.046Z,6.50
2022-12-24T17:51:54.241Z,6.90
2022-12-24T17:54:39.326Z,8.15
2022-12-24T17:57:24.282Z,8.07
2022-12-24T18:00:10.176Z,7.07
2022-12-24T18:02:55.495Z,8.35
2022-12-24T18:05:40.689Z,8.33
2022-12-24T18:08:25.848Z,9.48
2022-12-24T18:11:20.606Z,9.90
2022-12-24T18:14:05.857Z,10.30
2022-12-24T18:16:50.805Z,8.82
2022-12-24T18:19:36.189Z,7.70
2022-12-24T18:22:21.176Z,8.82
2022-12-24T18:25:07.007Z,8.38
2022-12-24T18:27:51.796Z,8.32
2022-12-24T18:30:36.843Z,7.65
2022-12-24T18:33:22.072Z,8.40
2022-12-24T18:36:07.743Z,8.68
2022-12-24T18:38:52.904Z,7.70
2022-12-24T18:41:38.036Z,8.38
2022-12-24T18:44:25.507Z,8.15
2022-12-24T18:47:11.098Z,7.30
2022-12-24T18:49:55.923Z,7.05
2022-12-24T18:52:41.161Z,7.53
2022-12-24T18:55:26.288Z,8.10
2022-12-24T18:58:11.481Z,10.18
2022-12-24T19:00:56.316Z,12.63
2022-12-24T19:03:41.861Z,11.30
2022-12-24T19:06:26.936Z,10.15
2022-12-24T19:09:11.831Z,7.97
2022-12-24T19:11:57.780Z,9.15
2022-12-24T19:14:42.611Z,9.27
2022-12-24T19:17:27.873Z,10.13
2022-12-24T19:20:12.717Z,10.07
2022-12-24T19:22:57.632Z,8.30
2022-12-24T19:25:42.673Z,8.48
2022-12-24T19:28:29.456Z,7.70
2022-12-24T19:31:17.866Z,7.35
2022-12-24T19:34:02.949Z,8.07
2022-12-24T19:36:48.063Z,9.02
2022-12-24T19:39:33.437Z,10.20
2022-12-24T19:42:18.405Z,9.37
2022-12-24T19:45:03.766Z,10.55
2022-12-24T19:47:50.877Z,12.05
2022-12-24T19:50:35.880Z,11.05
2022-12-24T19:53:20.781Z,11.60
2022-12-24T19:56:06.868Z,12.30
2022-12-24T19:58:51.872Z,12.40
2022-12-24T20:01:36.961Z,12.02
2022-12-24T20:04:22.279Z,12.88
2022-12-24T20:07:07.365Z,13.07
2022-12-24T20:09:52.235Z,12.73
2022-12-24T20:12:37.532Z,11.27
2022-12-24T20:15:22.246Z,11.52
2022-12-24T20:18:07.771Z,12.18
2022-12-24T20:20:52.511Z,11.45
2022-12-24T20:23:38.368Z,11.23
2022-12-24T20:26:26.445Z,12.05
2022-12-24T20:29:11.439Z,12.63
2022-12-24T20:31:56.650Z,11.88
2022-12-24T20:34:41.588Z,20.80
2022-12-24T20:37:26.767Z,20.40
2022-12-24T20:40:11.705Z,17.45
2022-12-24T20:42:57.022Z,17.33
2022-12-24T20:45:49.000Z,16.02
2022-12-24T20:48:34.799Z,17.02
2022-12-24T20:51:24.690Z,14.33
2022-12-24T20:54:10.865Z,11.95
2022-12-24T20:56:58.310Z,11.45
2022-12-24T20:59:43.999Z,12.40
2022-12-24T21:02:29.154Z,12.50
2022-12-24T21:05:14.194Z,11.73
2022-12-24T21:08:00.115Z,12.73
2022-12-24T21:10:46.970Z,13.23
2022-12-24T21:13:31.841Z,13.13
2022-12-24T21:16:17.019Z,14.90
2022-12-24T21:19:02.361Z,14.43
2022-12-24T21:21:47.790Z,15.20
2022-12-24T21:24:32.637Z,14.27
2022-12-24T21:27:17.335Z,15.93
2022-12-24T21:30:03.709Z,18.23
2022-12-24T21:32:49.191Z,17.10
2022-12-24T21:35:33.906Z,19.98
2022-12-24T21:38:19.022Z,18.45
2022-12-24T21:41:08.037Z,19.25
2022-12-24T21:43:52.980Z,18.25
2022-12-24T21:46:38.183Z,19.03
2022-12-24T21:49:41.637Z,18.75
2022-12-24T21:52:26.952Z,17.42
2022-12-24T21:55:12.076Z,17.27
2022-12-24T21:57:56.873Z,15.93
2022-12-24T22:00:42.060Z,15.17
2022-12-24T22:03:27.212Z,15.65
2022-12-24T22:06:34.746Z,14.48
2022-12-24T22:09:38.283Z,12.25
2022-12-24T22:12:23.792Z,12.98
2022-12-24T22:15:08.896Z,10.10
2022-12-24T22:17:54.142Z,10.32
2022-12-24T22:20:39.927Z,10.52
2022-12-24T22:23:24.928Z,9.38
2022-12-24T22:26:12.163Z,9.85
2022-12-24T22:28:56.933Z,9.27
2022-12-24T22:31:42.181Z,8.20
2022-12-24T22:34:27.609Z,8.88
2022-12-24T22:37:12.925Z,8.23
2022-12-24T22:39:57.727Z,7.90
2022-12-24T22:42:42.867Z,7.23
2022-12-24T22:45:28.022Z,7.43
2022-12-24T22:48:13.054Z,7.07
2022-12-24T22:50:58.017Z,7.82
2022-12-24T22:53:43.112Z,7.88
2022-12-24T22:56:27.926Z,7.07
2022-12-24T22:59:13.709Z,6.72
2022-12-24T23:01:59.334Z,6.75
2022-12-24T23:04:44.410Z,7.10
2022-12-24T23:07:29.474Z,5.63
2022-12-24T23:10:14.572Z,5.90
2022-12-24T23:13:18.564Z,6.45
2022-12-24T23:16:05.138Z,5.95
2022-12-24T23:18:50.373Z,6.00
2022-12-24T23:21:36.882Z,6.18
2022-12-24T23:24:22.232Z,5.50
2022-12-24T23:27:07.469Z,6.55
2022-12-24T23:29:52.361Z,6.20
2022-12-24T23:32:37.528Z,6.30
2022-12-24T23:35:22.546Z,4.78
2022-12-24T23:38:08.011Z,5.30
2022-12-24T23:40:57.077Z,5.45
2022-12-24T23:43:41.840Z,5.63
2022-12-24T23:46:27.220Z,5.68
2022-12-24T23:49:15.574Z,5.40
2022-12-24T23:52:00.623Z,4.90
2022-12-24T23:54:45.625Z,5.20
2022-12-24T23:57:30.624Z,5.50
